Time;durP1;ratioP1;P1;durP2;ratioP2;P2;SDS_P1;SDS_P2;PMS_P1;PMS_P2;Temp;Humidity;BMP_temperature;BMP_pressure;BME280_temperature;BME280_humidity;BME280_pressure;Samples;Min_cycle;Max_cycle;Signal;HPM_P1;HPM_P2
2022/10/23 00:00:36;;;;;;;13.85;4.88;;;17.40;99.90;;;;;;5013549;28;20022;-77
2022/10/23 00:03:02;;;;;;;13.00;4.38;;;17.40;99.90;;;;;;5013641;28;20034;-78
2022/10/23 00:05:29;;;;;;;7.45;4.13;;;17.40;99.90;;;;;;5013851;28;20386;-77
2022/10/23 00:07:57;;;;;;;10.60;4.53;;;17.30;99.90;;;;;;5013598;28;20100;-78
2022/10/23 00:10:25;;;;;;;8.93;4.28;;;17.30;99.90;;;;;;5013729;28;20026;-79
2022/10/23 00:12:51;;;;;;;10.82;4.55;;;17.30;99.90;;;;;;5013633;28;20037;-77
2022/10/23 00:15:20;;;;;;;11.25;4.35;;;17.30;99.90;;;;;;5012324;28;20022;-77
2022/10/23 00:17:46;;;;;;;10.15;4.50;;;17.30;99.90;;;;;;5013705;28;20117;-78
2022/10/23 00:20:13;;;;;;;10.43;4.20;;;17.30;99.90;;;;;;5013683;28;20049;-78
2022/10/23 00:22:39;;;;;;;11.20;4.50;;;17.30;99.90;;;;;;5013642;28;20037;-78
2022/10/23 00:25:06;;;;;;;10.60;4.72;;;17.30;99.90;;;;;;5013294;28;20018;-78
2022/10/23 00:27:33;;;;;;;12.38;4.53;;;17.20;99.90;;;;;;5011971;28;20419;-78
2022/10/23 00:29:59;;;;;;;12.43;4.13;;;17.20;99.90;;;;;;5013030;28;20018;-78
2022/10/23 00:32:24;;;;;;;8.77;4.40;;;17.20;99.90;;;;;;5012199;28;20033;-78
2022/10/23 00:34:50;;;;;;;14.50;4.40;;;17.20;99.90;;;;;;5013016;28;20042;-78
2022/10/23 00:37:15;;;;;;;12.18;4.75;;;17.20;99.90;;;;;;5013265;28;20014;-78
2022/10/23 00:39:41;;;;;;;9.35;4.45;;;17.20;99.90;;;;;;5011944;28;20083;-79
2022/10/23 00:42:09;;;;;;;9.70;4.32;;;17.20;99.90;;;;;;5011809;28;20026;-78
2022/10/23 00:44:34;;;;;;;13.40;4.55;;;17.20;99.90;;;;;;5012010;28;20037;-78
2022/10/23 00:47:00;;;;;;;10.02;4.30;;;17.20;99.90;;;;;;5013211;28;20045;-78
2022/10/23 00:49:27;;;;;;;9.27;4.38;;;17.20;99.90;;;;;;5013196;28;20049;-78
2022/10/23 00:51:57;;;;;;;10.60;4.28;;;17.20;99.90;;;;;;5013355;28;20067;-77
2022/10/23 00:54:26;;;;;;;10.43;4.75;;;17.20;99.90;;;;;;5013154;28;20499;-78
2022/10/23 00:57:00;;;;;;;10.05;3.88;;;17.20;99.90;;;;;;5013226;28;20033;-78
2022/10/23 00:59:27;;;;;;;9.25;3.45;;;17.20;99.90;;;;;;5015529;28;20037;-77
2022/10/23 01:01:53;;;;;;;9.48;3.97;;;17.20;99.90;;;;;;5015999;28;20029;-76
2022/10/23 01:04:19;;;;;;;11.15;4.28;;;17.20;99.90;;;;;;5015792;28;20033;-76
2022/10/23 01:07:05;;;;;;;9.05;4.15;;;17.20;99.90;;;;;;5017022;28;20041;-77
2022/10/23 01:09:41;;;;;;;9.98;4.70;;;17.10;99.90;;;;;;5016003;28;20030;-77
2022/10/23 01:12:13;;;;;;;8.48;3.83;;;17.20;99.90;;;;;;5016765;28;20018;-76
2022/10/23 01:14:59;;;;;;;10.25;4.35;;;17.20;99.90;;;;;;5016890;28;20057;-78
2022/10/23 01:17:25;;;;;;;11.43;4.72;;;17.20;99.90;;;;;;5016644;28;20080;-76
2022/10/23 01:19:50;;;;;;;15.65;4.40;;;17.10;99.90;;;;;;5015312;28;20030;-78
2022/10/23 01:22:25;;;;;;;9.93;4.38;;;17.20;99.90;;;;;;5016775;28;20367;-78
2022/10/23 01:25:11;;;;;;;13.57;4.55;;;17.20;99.90;;;;;;5016755;28;20029;-78
2022/10/23 01:27:42;;;;;;;12.63;4.65;;;17.10;99.90;;;;;;5016603;28;20044;-79
2022/10/23 01:30:14;;;;;;;9.07;4.15;;;17.20;99.90;;;;;;5016411;28;20026;-78
2022/10/23 01:33:04;;;;;;;13.25;4.60;;;17.20;99.90;;;;;;5016620;28;20033;-78
2022/10/23 01:36:10;;;;;;;8.77;4.00;;;17.20;99.90;;;;;;5016445;28;20514;-79
2022/10/23 01:38:52;;;;;;;10.63;4.40;;;17.10;99.90;;;;;;4961802;28;20040;-78
2022/10/23 01:41:30;;;;;;;9.85;3.72;;;17.20;99.90;;;;;;5016249;28;20026;-79
2022/10/23 01:44:03;;;;;;;9.10;3.92;;;17.10;99.90;;;;;;5016410;28;20506;-78
2022/10/23 01:46:30;;;;;;;9.77;4.00;;;17.20;99.90;;;;;;5016122;28;20045;-78
2022/10/23 01:48:58;;;;;;;12.90;5.20;;;17.10;99.90;;;;;;5016226;28;20386;-78
2022/10/23 01:51:27;;;;;;;11.00;4.50;;;17.10;99.90;;;;;;5016414;28;20475;-78
2022/10/23 01:53:58;;;;;;;9.48;4.60;;;17.10;99.90;;;;;;5016135;28;20022;-78
2022/10/23 01:56:30;;;;;;;7.63;4.22;;;17.10;99.90;;;;;;5015741;28;20520;-77
2022/10/23 01:59:00;;;;;;;10.82;5.35;;;17.10;99.90;;;;;;5015013;28;20029;-76
2022/10/23 02:01:29;;;;;;;14.02;5.40;;;17.10;99.90;;;;;;5015871;28;20018;-78
2022/10/23 02:03:55;;;;;;;7.60;4.45;;;17.10;99.90;;;;;;5016050;28;20037;-78
2022/10/23 02:06:21;;;;;;;9.93;4.18;;;17.10;99.90;;;;;;5015839;28;20037;-78
2022/10/23 02:08:47;;;;;;;9.00;4.00;;;17.10;99.90;;;;;;5016071;28;20018;-78
2022/10/23 02:11:18;;;;;;;9.43;3.83;;;17.10;99.90;;;;;;5014313;28;20076;-78
2022/10/23 02:13:50;;;;;;;9.77;4.07;;;17.10;99.90;;;;;;5015737;28;20471;-78
2022/10/23 02:16:27;;;;;;;9.82;3.65;;;17.10;99.90;;;;;;5015489;28;20080;-78
2022/10/23 02:19:13;;;;;;;12.60;3.97;;;17.00;99.90;;;;;;5015801;28;20032;-79
2022/10/23 02:22:11;;;;;;;8.07;3.78;;;17.00;99.90;;;;;;5015638;28;20036;-79
2022/10/23 02:24:59;;;;;;;6.65;3.00;;;17.00;99.90;;;;;;5015552;28;20022;-78
2022/10/23 02:27:43;;;;;;;9.20;3.58;;;17.00;99.90;;;;;;5015225;28;20030;-78
2022/10/23 02:30:12;;;;;;;8.68;3.42;;;17.00;99.90;;;;;;5015522;28;20026;-78
2022/10/23 02:32:47;;;;;;;6.63;3.45;;;17.00;99.90;;;;;;5015497;28;20036;-78
2022/10/23 02:35:14;;;;;;;7.70;3.72;;;17.00;99.90;;;;;;5015153;28;20030;-77
2022/10/23 02:37:40;;;;;;;8.50;3.38;;;17.00;99.90;;;;;;5015399;28;20026;-78
2022/10/23 02:40:08;;;;;;;7.70;3.10;;;17.10;99.90;;;;;;5015001;28;20032;-78
2022/10/23 02:42:41;;;;;;;6.78;2.92;;;17.00;99.90;;;;;;5015645;28;20036;-78
2022/10/23 02:45:20;;;;;;;6.30;3.35;;;17.00;99.90;;;;;;5015738;28;20026;-77
2022/10/23 02:48:00;;;;;;;7.32;3.45;;;17.00;99.90;;;;;;5015414;28;20044;-77
2022/10/23 02:50:47;;;;;;;6.47;2.92;;;17.00;99.90;;;;;;5014126;28;20069;-76
2022/10/23 02:53:35;;;;;;;8.45;3.03;;;17.00;99.90;;;;;;5014765;28;20033;-76
2022/10/23 02:56:06;;;;;;;5.57;3.03;;;17.00;99.90;;;;;;5015014;28;20034;-78
2022/10/23 02:58:53;;;;;;;7.25;3.00;;;17.00;99.90;;;;;;5014822;28;20030;-77
2022/10/23 03:01:25;;;;;;;6.75;3.25;;;16.90;99.90;;;;;;5013747;28;20101;-78
2022/10/23 03:03:54;;;;;;;5.10;2.72;;;17.00;99.90;;;;;;5014750;28;20026;-77
2022/10/23 03:06:20;;;;;;;7.00;2.63;;;16.90;99.90;;;;;;5014588;28;20042;-77
2022/10/23 03:09:03;;;;;;;6.20;2.72;;;16.90;99.90;;;;;;5014469;28;20109;-78
2022/10/23 03:11:29;;;;;;;7.30;2.88;;;16.90;99.90;;;;;;5014717;28;20478;-77
2022/10/23 03:13:55;;;;;;;4.93;2.78;;;16.90;99.90;;;;;;5014581;28;20029;-78
2022/10/23 03:16:20;;;;;;;4.55;2.75;;;16.90;99.90;;;;;;5014497;28;20041;-77
2022/10/23 03:18:46;;;;;;;6.47;3.22;;;16.90;99.90;;;;;;5014523;28;20037;-78
2022/10/23 03:21:12;;;;;;;6.68;2.85;;;16.90;99.90;;;;;;5014249;28;20022;-78
2022/10/23 03:23:37;;;;;;;7.78;2.95;;;16.90;99.90;;;;;;5014125;28;20521;-77
2022/10/23 03:26:03;;;;;;;7.18;2.88;;;16.90;99.90;;;;;;5014283;28;20481;-77
2022/10/23 03:28:29;;;;;;;7.10;3.17;;;16.90;99.90;;;;;;5014306;28;20029;-77
2022/10/23 03:30:55;;;;;;;7.65;3.13;;;16.90;99.90;;;;;;5014358;28;20488;-75
2022/10/23 03:33:21;;;;;;;7.55;3.30;;;16.90;99.90;;;;;;5013181;28;20017;-75
2022/10/23 03:35:49;;;;;;;5.80;2.75;;;16.90;99.90;;;;;;5014278;28;20045;-77
2022/10/23 03:38:15;;;;;;;6.88;2.85;;;16.80;99.90;;;;;;5012330;28;20113;-75
2022/10/23 03:40:42;;;;;;;5.72;3.17;;;16.80;99.90;;;;;;5014296;28;20114;-76
2022/10/23 03:43:07;;;;;;;8.90;3.60;;;16.80;99.90;;;;;;5005671;28;20463;-77
2022/10/23 03:45:33;;;;;;;13.13;5.43;;;16.80;99.90;;;;;;5002120;28;20073;-75
2022/10/23 03:47:58;;;;;;;14.13;5.00;;;16.80;99.90;;;;;;4991040;28;20030;-78
2022/10/23 03:50:24;;;;;;;10.02;4.53;;;16.70;99.90;;;;;;4992710;28;20045;-76
2022/10/23 03:52:50;;;;;;;9.23;4.22;;;16.70;99.90;;;;;;4993834;28;20053;-75
2022/10/23 03:55:16;;;;;;;9.38;3.75;;;16.70;99.90;;;;;;4994208;28;20054;-76
2022/10/23 03:57:41;;;;;;;8.55;3.03;;;16.70;99.90;;;;;;4994361;28;20023;-79
2022/10/23 04:00:08;;;;;;;8.50;3.38;;;16.70;99.90;;;;;;4994697;28;20061;-76
2022/10/23 04:02:33;;;;;;;8.73;3.75;;;16.70;99.90;;;;;;4994254;28;20084;-76
2022/10/23 04:04:59;;;;;;;10.10;4.32;;;16.80;99.90;;;;;;4992803;28;20034;-78
2022/10/23 04:07:24;;;;;;;10.98;4.25;;;16.80;99.90;;;;;;4993714;28;20030;-77
2022/10/23 04:09:50;;;;;;;9.98;4.20;;;16.80;99.90;;;;;;4993815;28;20038;-76
2022/10/23 04:12:15;;;;;;;9.05;4.28;;;16.70;99.90;;;;;;4994060;28;20030;-77
2022/10/23 04:14:41;;;;;;;10.45;4.50;;;16.70;99.90;;;;;;4992803;28;20053;-79
2022/10/23 04:17:06;;;;;;;11.32;4.47;;;16.70;99.90;;;;;;4993941;28;20027;-79
2022/10/23 04:19:32;;;;;;;9.25;3.70;;;16.70;99.90;;;;;;4993661;28;20030;-78
2022/10/23 04:21:58;;;;;;;9.30;3.95;;;16.70;99.90;;;;;;4993709;28;20026;-78
2022/10/23 04:24:24;;;;;;;8.05;3.72;;;16.80;99.90;;;;;;4993554;28;20025;-79
2022/10/23 04:26:50;;;;;;;12.38;4.38;;;16.70;99.90;;;;;;4993804;28;20065;-79
2022/10/23 04:29:16;;;;;;;9.00;4.13;;;16.70;99.90;;;;;;4993713;28;20476;-79
2022/10/23 04:31:41;;;;;;;10.23;4.18;;;16.70;99.90;;;;;;4993708;28;20029;-78
2022/10/23 04:34:07;;;;;;;8.60;4.43;;;16.70;99.90;;;;;;4991971;28;20022;-77
2022/10/23 04:36:32;;;;;;;11.05;4.20;;;16.70;99.90;;;;;;4993173;28;20040;-78
2022/10/23 04:38:58;;;;;;;7.57;3.60;;;16.70;99.90;;;;;;4993720;28;20061;-78
2022/10/23 04:41:23;;;;;;;6.68;3.17;;;16.70;99.90;;;;;;4992419;28;20023;-78
2022/10/23 04:43:49;;;;;;;9.55;3.78;;;16.70;99.90;;;;;;4992379;28;20033;-78
2022/10/23 04:46:14;;;;;;;12.07;4.20;;;16.70;99.90;;;;;;4992120;28;20030;-78
2022/10/23 04:48:40;;;;;;;9.27;3.72;;;16.70;99.90;;;;;;4992314;28;20022;-76
2022/10/23 04:51:06;;;;;;;7.65;3.35;;;16.80;99.90;;;;;;4993264;28;20356;-76
2022/10/23 04:53:31;;;;;;;8.90;3.78;;;16.80;99.90;;;;;;4993621;28;20029;-76
2022/10/23 04:55:58;;;;;;;7.82;3.63;;;16.80;99.90;;;;;;4993356;28;20145;-76
2022/10/23 04:58:25;;;;;;;7.85;3.15;;;16.80;99.90;;;;;;4993386;28;20529;-78
2022/10/23 05:00:51;;;;;;;6.43;2.92;;;16.80;99.90;;;;;;4995368;28;20097;-76
2022/10/23 05:03:17;;;;;;;9.32;3.00;;;16.80;99.90;;;;;;5001902;28;20030;-76
2022/10/23 05:05:44;;;;;;;5.45;3.10;;;16.80;99.90;;;;;;4990969;28;20027;-76
2022/10/23 05:08:10;;;;;;;7.28;2.90;;;16.80;99.90;;;;;;4992182;28;20525;-75
2022/10/23 05:10:36;;;;;;;6.43;3.50;;;16.70;99.90;;;;;;4991978;28;20054;-76
2022/10/23 05:13:02;;;;;;;8.50;3.83;;;16.70;99.90;;;;;;4992813;28;20077;-75
2022/10/23 05:15:27;;;;;;;6.03;3.08;;;16.70;99.90;;;;;;4992495;28;20034;-75
2022/10/23 05:18:07;;;;;;;8.45;3.78;;;16.70;99.90;;;;;;4993383;28;20026;-75
2022/10/23 05:20:35;;;;;;;8.50;3.20;;;16.70;99.90;;;;;;4993233;28;20034;-76
2022/10/23 05:23:01;;;;;;;7.40;3.53;;;16.80;99.90;;;;;;4995439;28;20560;-75
2022/10/23 05:25:29;;;;;;;15.18;3.60;;;16.90;99.90;;;;;;5007663;28;20018;-75
2022/10/23 05:27:54;;;;;;;7.85;3.85;;;16.90;99.90;;;;;;5005387;28;20034;-76
2022/10/23 05:30:20;;;;;;;8.38;3.50;;;16.90;99.90;;;;;;4994114;28;20042;-77
2022/10/23 05:32:46;;;;;;;6.90;3.38;;;16.90;99.90;;;;;;5002425;28;20479;-76
2022/10/23 05:35:17;;;;;;;5.53;2.92;;;16.80;99.90;;;;;;5012214;28;20044;-76
2022/10/23 05:37:45;;;;;;;6.47;2.58;;;16.90;99.90;;;;;;5003567;28;20019;-75
2022/10/23 05:40:11;;;;;;;10.18;3.22;;;16.90;99.90;;;;;;4998051;28;20036;-76
2022/10/23 05:42:37;;;;;;;8.15;3.00;;;16.80;99.90;;;;;;5003524;28;20014;-76
2022/10/23 05:45:03;;;;;;;9.30;3.40;;;16.80;99.90;;;;;;5011360;28;20474;-76
2022/10/23 05:47:30;;;;;;;8.38;3.17;;;16.80;99.90;;;;;;5006369;28;20042;-75
2022/10/23 05:49:56;;;;;;;8.25;2.50;;;16.80;99.90;;;;;;5015412;28;20033;-75
2022/10/23 05:52:22;;;;;;;7.78;2.70;;;16.70;99.90;;;;;;5007790;28;20490;-76
2022/10/23 05:54:50;;;;;;;8.52;3.35;;;16.80;99.90;;;;;;4996133;28;20015;-76
2022/10/23 05:57:15;;;;;;;5.97;2.72;;;16.80;99.90;;;;;;5007257;28;20021;-76
2022/10/23 05:59:41;;;;;;;6.43;3.05;;;16.80;99.90;;;;;;5015495;28;20514;-76
2022/10/23 06:02:06;;;;;;;11.45;3.45;;;16.80;99.90;;;;;;5015105;28;20525;-76
2022/10/23 06:04:33;;;;;;;6.97;2.72;;;16.80;99.90;;;;;;5013754;28;20477;-75
2022/10/23 06:06:59;;;;;;;6.07;2.92;;;16.80;99.90;;;;;;5009331;28;20491;-75
2022/10/23 06:09:24;;;;;;;10.00;2.78;;;16.80;99.90;;;;;;5013884;28;20014;-76
2022/10/23 06:11:50;;;;;;;5.93;2.60;;;16.70;99.90;;;;;;5013629;28;20697;-78
2022/10/23 06:14:15;;;;;;;5.03;2.47;;;16.70;99.90;;;;;;5011247;28;20022;-79
2022/10/23 06:16:41;;;;;;;8.75;2.10;;;16.70;99.90;;;;;;5006570;28;20499;-79
2022/10/23 06:19:09;;;;;;;6.50;2.60;;;16.70;99.90;;;;;;5000497;28;20033;-79
2022/10/23 06:21:36;;;;;;;7.13;2.08;;;16.70;99.90;;;;;;5014648;28;20136;-79
2022/10/23 06:24:02;;;;;;;4.35;2.05;;;16.80;99.90;;;;;;5014792;28;20598;-79
2022/10/23 06:26:28;;;;;;;7.82;2.55;;;16.80;99.90;;;;;;5009866;28;20053;-79
2022/10/23 06:28:54;;;;;;;6.00;2.10;;;16.70;99.90;;;;;;5001251;28;20031;-79
2022/10/23 06:31:25;;;;;;;4.25;2.05;;;16.70;99.90;;;;;;5001450;28;20022;-78
2022/10/23 06:33:51;;;;;;;7.05;2.03;;;16.70;99.90;;;;;;5006708;28;20027;-78
2022/10/23 06:36:16;;;;;;;4.53;2.20;;;16.60;99.90;;;;;;5014734;28;20113;-76
2022/10/23 06:38:42;;;;;;;4.60;2.10;;;16.70;99.90;;;;;;5009419;28;20026;-79
2022/10/23 06:41:13;;;;;;;8.63;2.17;;;16.70;99.90;;;;;;5012932;28;20549;-77
2022/10/23 06:43:39;;;;;;;4.80;2.20;;;16.80;99.90;;;;;;5002741;28;20113;-77
2022/10/23 06:46:04;;;;;;;5.25;1.98;;;16.90;99.90;;;;;;5009313;28;20110;-78
2022/10/23 06:48:30;;;;;;;3.78;2.50;;;17.00;99.90;;;;;;5013544;28;20026;-78
2022/10/23 06:50:57;;;;;;;5.88;2.30;;;17.00;99.90;;;;;;4999929;28;20022;-77
2022/10/23 06:53:23;;;;;;;4.80;2.17;;;17.10;99.90;;;;;;5007157;28;20108;-76
2022/10/23 06:55:50;;;;;;;5.97;2.35;;;17.10;99.90;;;;;;5006666;28;20087;-75
2022/10/23 06:58:16;;;;;;;7.53;2.05;;;17.20;99.90;;;;;;5011719;28;20033;-77
2022/10/23 07:00:43;;;;;;;5.95;2.22;;;17.20;99.90;;;;;;5005957;28;20026;-78
2022/10/23 07:03:09;;;;;;;5.43;2.08;;;17.30;99.90;;;;;;4996224;28;20075;-78
2022/10/23 07:05:35;;;;;;;4.75;2.72;;;17.20;99.90;;;;;;5008415;28;20112;-77
2022/10/23 07:08:02;;;;;;;6.45;2.28;;;17.20;99.90;;;;;;5006738;28;20038;-78
2022/10/23 07:10:28;;;;;;;6.95;3.22;;;17.10;99.90;;;;;;5012620;28;20053;-77
2022/10/23 07:12:59;;;;;;;4.82;2.58;;;17.10;99.90;;;;;;5013477;28;20057;-78
2022/10/23 07:15:25;;;;;;;10.77;3.63;;;17.20;99.90;;;;;;5012392;28;20073;-75
2022/10/23 07:17:51;;;;;;;7.47;2.92;;;17.10;99.90;;;;;;5003506;28;20282;-79
2022/10/23 07:20:16;;;;;;;4.00;2.20;;;17.20;99.90;;;;;;5010068;28;20071;-78
2022/10/23 07:22:42;;;;;;;7.53;2.63;;;17.20;99.90;;;;;;5010436;28;20061;-78
2022/10/23 07:25:08;;;;;;;5.88;2.53;;;17.30;99.90;;;;;;5000213;28;20383;-78
2022/10/23 07:27:37;;;;;;;6.90;2.55;;;17.20;99.90;;;;;;5006794;28;20045;-78
2022/10/23 07:30:03;;;;;;;7.55;3.25;;;17.20;99.90;;;;;;5007944;28;20375;-77
2022/10/23 07:32:28;;;;;;;8.73;3.20;;;17.20;99.90;;;;;;4993964;28;20475;-79
2022/10/23 07:34:54;;;;;;;4.90;2.72;;;17.10;99.90;;;;;;4996077;28;20113;-76
2022/10/23 07:37:19;;;;;;;4.28;2.58;;;17.10;99.90;;;;;;5002433;28;20031;-77
2022/10/23 07:39:45;;;;;;;8.35;2.40;;;17.10;99.90;;;;;;4998849;28;20027;-76
2022/10/23 07:42:10;;;;;;;7.32;2.80;;;17.20;99.90;;;;;;4994208;28;20077;-78
2022/10/23 07:44:36;;;;;;;4.55;2.53;;;17.20;99.90;;;;;;4993550;28;20097;-77
2022/10/23 07:47:01;;;;;;;6.70;2.40;;;17.30;99.90;;;;;;4994471;28;20035;-78
2022/10/23 07:49:27;;;;;;;6.38;2.17;;;17.30;99.90;;;;;;4994188;28;20027;-78
2022/10/23 07:51:53;;;;;;;6.70;2.80;;;17.30;99.90;;;;;;4994389;28;20096;-78
2022/10/23 07:54:18;;;;;;;6.13;2.40;;;17.30;99.90;;;;;;4994408;28;20431;-78
2022/10/23 07:56:44;;;;;;;6.65;1.77;;;17.30;99.90;;;;;;4994272;28;20026;-76
2022/10/23 07:59:12;;;;;;;6.00;2.00;;;17.30;99.90;;;;;;4993908;28;20415;-78
2022/10/23 08:01:38;;;;;;;6.00;2.25;;;17.30;99.90;;;;;;4994214;28;20383;-78
2022/10/23 08:04:04;;;;;;;4.03;2.20;;;17.30;99.90;;;;;;4993894;28;20498;-78
2022/10/23 08:06:30;;;;;;;4.50;2.13;;;17.30;99.90;;;;;;4994074;28;20046;-78
2022/10/23 08:08:55;;;;;;;4.75;2.22;;;17.20;99.90;;;;;;4991809;28;20018;-78
2022/10/23 08:11:29;;;;;;;6.60;2.30;;;17.20;99.90;;;;;;4994113;28;20030;-78
2022/10/23 08:13:56;;;;;;;4.80;2.00;;;17.20;99.90;;;;;;4993921;28;20149;-78
2022/10/23 08:16:23;;;;;;;4.68;2.25;;;17.30;99.90;;;;;;4991941;28;20073;-77
2022/10/23 08:18:49;;;;;;;4.07;2.13;;;17.30;99.90;;;;;;4993439;28;20018;-78
2022/10/23 08:21:16;;;;;;;5.47;2.08;;;17.30;99.90;;;;;;4993872;28;20030;-79
2022/10/23 08:23:42;;;;;;;3.58;1.92;;;17.30;99.90;;;;;;4993662;28;20088;-78
2022/10/23 08:26:08;;;;;;;4.10;1.85;;;17.30;99.90;;;;;;4993611;28;20031;-76
2022/10/23 08:28:34;;;;;;;6.45;2.53;;;17.30;99.90;;;;;;4998035;28;20555;-78
2022/10/23 08:31:06;;;;;;;4.80;2.30;;;17.30;99.90;;;;;;5003034;28;20490;-78
2022/10/23 08:33:32;;;;;;;4.25;1.83;;;17.30;99.90;;;;;;5012445;28;20030;-77
2022/10/23 08:35:57;;;;;;;3.75;2.20;;;17.30;99.90;;;;;;5012085;28;20030;-78
2022/10/23 08:38:23;;;;;;;5.65;1.63;;;17.30;99.90;;;;;;5012409;28;20030;-78
2022/10/23 08:40:48;;;;;;;5.50;2.10;;;17.30;99.90;;;;;;5013138;28;20053;-79
2022/10/23 08:43:46;;;;;;;6.78;2.33;;;17.30;99.90;;;;;;5005656;28;20389;-74
2022/10/23 08:46:16;;;;;;;5.50;2.10;;;17.30;99.90;;;;;;5010724;28;20037;-78
2022/10/23 08:48:49;;;;;;;6.68;2.08;;;17.30;99.90;;;;;;5005622;28;20077;-76
2022/10/23 08:51:24;;;;;;;6.47;2.40;;;17.30;99.90;;;;;;5005253;28;20104;-81
2022/10/23 08:54:01;;;;;;;8.15;2.85;;;17.30;99.90;;;;;;5021438;28;20056;-78
2022/10/23 08:56:32;;;;;;;10.45;2.55;;;17.30;99.90;;;;;;5015033;28;20022;-79
2022/10/23 08:59:06;;;;;;;5.93;2.50;;;17.40;99.90;;;;;;5003692;28;20525;-78
2022/10/23 09:01:41;;;;;;;7.18;2.40;;;17.40;99.90;;;;;;5006028;28;20375;-80
2022/10/23 09:04:12;;;;;;;10.70;2.10;;;17.40;99.90;;;;;;4992763;28;20022;-79
2022/10/23 09:07:01;;;;;;;6.40;2.53;;;17.40;99.90;;;;;;4993978;28;20096;-72
2022/10/23 09:10:02;;;;;;;7.22;2.03;;;17.40;99.90;;;;;;4986855;28;20491;-76
2022/10/23 09:12:30;;;;;;;12.18;2.83;;;17.40;99.90;;;;;;5001589;28;20034;-77
2022/10/23 09:15:12;;;;;;;6.68;2.17;;;17.40;99.90;;;;;;4997199;28;20022;-73
2022/10/23 09:17:40;;;;;;;4.20;1.63;;;17.40;99.90;;;;;;4998210;28;20108;-79
2022/10/23 09:20:20;;;;;;;7.18;2.47;;;17.50;99.90;;;;;;4998264;28;20038;-78
2022/10/23 09:22:48;;;;;;;5.00;2.50;;;17.40;99.90;;;;;;4997645;28;20033;-74
2022/10/23 09:25:40;;;;;;;6.78;2.15;;;17.40;99.90;;;;;;5001647;28;20114;-78
2022/10/23 09:28:11;;;;;;;;;;;17.40;99.90;;;;;;5006452;28;20064;-77
2022/10/23 09:30:41;;;;;;;8.15;2.63;;;17.40;99.90;;;;;;5004734;28;19928;-77
2022/10/23 09:33:22;;;;;;;5.13;2.28;;;17.50;99.90;;;;;;5010236;28;20084;-77
2022/10/23 09:36:04;;;;;;;5.78;2.05;;;17.50;99.90;;;;;;5002056;28;20061;-77
2022/10/23 09:38:31;;;;;;;4.80;2.23;;;17.50;99.90;;;;;;4999085;28;20085;-77
2022/10/23 09:41:15;;;;;;;6.30;2.13;;;17.50;99.90;;;;;;4998974;28;20032;-79
2022/10/23 09:43:42;;;;;;;6.35;2.40;;;17.50;99.90;;;;;;4998716;28;20390;-77
2022/10/23 09:46:09;;;;;;;6.32;2.22;;;17.50;99.90;;;;;;5007283;28;20038;-78
2022/10/23 09:48:35;;;;;;;5.53;2.25;;;17.50;99.90;;;;;;5005243;28;20386;-78
2022/10/23 09:51:16;;;;;;;6.85;2.40;;;17.50;99.90;;;;;;5005984;28;20378;-79
2022/10/23 09:53:57;;;;;;;5.47;2.10;;;17.50;99.90;;;;;;5005968;28;20030;-79
2022/10/23 09:56:35;;;;;;;9.18;2.47;;;17.50;99.90;;;;;;5001993;28;20522;-79
2022/10/23 09:59:03;;;;;;;3.92;2.10;;;17.50;99.90;;;;;;5007105;28;20041;-79
2022/10/23 10:01:32;;;;;;;8.38;2.50;;;17.60;99.90;;;;;;4999603;28;20033;-80
2022/10/23 10:03:58;;;;;;;3.92;2.17;;;17.60;99.90;;;;;;5013188;28;20105;-78
2022/10/23 10:06:25;;;;;;;3.88;1.90;;;17.60;99.90;;;;;;5007067;28;20026;-78
2022/10/23 10:08:55;;;;;;;3.85;2.10;;;17.60;99.90;;;;;;5015058;28;20033;-79
2022/10/23 10:11:48;;;;;;;11.50;3.05;;;17.60;99.90;;;;;;5006519;28;20081;-79
2022/10/23 10:14:17;;;;;;;6.18;2.55;;;17.60;99.90;;;;;;5034274;28;20029;-80
2022/10/23 10:16:50;;;;;;;10.57;2.50;;;17.60;99.90;;;;;;5017623;28;20431;-80
2022/10/23 10:19:40;;;;;;;3.63;2.33;;;17.60;99.90;;;;;;5003984;28;20026;-76
2022/10/23 10:22:44;;;;;;;7.05;2.85;;;17.60;99.90;;;;;;4996484;28;20088;-76
2022/10/23 10:25:36;;;;;;;6.07;2.42;;;17.70;99.90;;;;;;4999383;28;20241;-76
2022/10/23 10:28:16;;;;;;;5.60;2.38;;;17.70;99.90;;;;;;4999830;28;20478;-80
2022/10/23 10:31:04;;;;;;;10.32;3.65;;;17.70;99.90;;;;;;5015258;28;20080;-80
2022/10/23 10:33:52;;;;;;;9.73;4.10;;;17.70;99.90;;;;;;5005502;28;20113;-80
2022/10/23 10:36:41;;;;;;;7.68;3.38;;;17.80;99.90;;;;;;4992791;28;20065;-79
2022/10/23 10:39:23;;;;;;;6.72;4.28;;;17.80;99.90;;;;;;4994218;28;20026;-79
2022/10/23 10:42:07;;;;;;;7.27;3.10;;;17.80;99.90;;;;;;4996421;28;20026;-78
2022/10/23 10:45:00;;;;;;;8.90;3.42;;;17.80;99.90;;;;;;5010364;28;20032;-80
2022/10/23 10:47:41;;;;;;;5.50;3.42;;;17.80;99.90;;;;;;4960943;28;20519;-77
2022/10/23 10:50:29;;;;;;;6.07;2.75;;;17.80;99.90;;;;;;4997545;28;20026;-73
2022/10/23 10:53:06;;;;;;;9.48;2.42;;;17.80;99.90;;;;;;5000518;28;20048;-76
2022/10/23 10:55:39;;;;;;;6.70;3.75;;;17.80;99.90;;;;;;5014413;28;20156;-77
2022/10/23 10:58:15;;;;;;;9.13;5.03;;;17.80;99.90;;;;;;5009033;28;20375;-78
2022/10/23 11:00:44;;;;;;;25.10;17.88;;;17.90;99.90;;;;;;5004015;28;20042;-77
2022/10/23 11:03:33;;;;;;;22.05;15.20;;;17.90;99.90;;;;;;5004948;28;20037;-75
2022/10/23 11:06:01;;;;;;;10.43;7.20;;;17.90;99.90;;;;;;4995023;28;20041;-78
2022/10/23 11:08:38;;;;;;;14.43;9.45;;;17.90;99.90;;;;;;5006287;28;20033;-74
2022/10/23 11:11:12;;;;;;;16.17;8.95;;;17.90;99.90;;;;;;4998274;28;20030;-76
2022/10/23 11:13:41;;;;;;;13.73;7.70;;;18.00;99.90;;;;;;5015111;28;20017;-75
2022/10/23 11:16:15;;;;;;;13.15;6.07;;;18.00;99.90;;;;;;5001301;28;20084;-76
2022/10/23 11:18:45;;;;;;;8.50;4.43;;;18.00;99.90;;;;;;5003041;28;20026;-76
2022/10/23 11:21:30;;;;;;;9.30;6.60;;;18.00;99.90;;;;;;5012065;28;20547;-78
2022/10/23 11:24:35;;;;;;;11.80;6.97;;;18.00;99.90;;;;;;5008735;28;20034;-79
2022/10/23 11:27:28;;;;;;;9.57;5.40;;;18.10;99.90;;;;;;4932924;29;20040;-80
2022/10/23 11:30:17;;;;;;;8.13;4.20;;;18.10;99.90;;;;;;5003844;28;20141;-77
2022/10/23 11:33:10;;;;;;;7.30;3.50;;;18.10;99.90;;;;;;5000517;28;20109;-78
2022/10/23 11:35:59;;;;;;;8.43;4.00;;;18.10;99.90;;;;;;5006295;28;20030;-78
2022/10/23 11:38:30;;;;;;;6.95;3.10;;;18.10;99.90;;;;;;4993063;28;20030;-78
2022/10/23 11:41:02;;;;;;;9.50;3.60;;;18.10;99.90;;;;;;5012633;28;20037;-78
2022/10/23 11:44:00;;;;;;;7.32;3.50;;;18.10;99.90;;;;;;5005126;28;20483;-74
2022/10/23 11:46:25;;;;;;;6.68;3.70;;;18.10;99.90;;;;;;4992057;28;20077;-77
2022/10/23 11:48:53;;;;;;;7.40;3.67;;;18.10;99.90;;;;;;5001915;28;20045;-79
2022/10/23 11:51:32;;;;;;;7.72;3.58;;;18.20;99.90;;;;;;5003986;28;20018;-78
2022/10/23 11:54:25;;;;;;;9.63;3.40;;;18.20;99.90;;;;;;4996496;28;20038;-78
2022/10/23 11:57:16;;;;;;;6.80;3.40;;;18.20;99.90;;;;;;5001752;28;20038;-80
2022/10/23 11:59:47;;;;;;;4.47;2.58;;;18.30;99.90;;;;;;5014409;28;20429;-80
2022/10/23 12:02:30;;;;;;;5.38;2.72;;;18.30;99.90;;;;;;4993276;28;20026;-78
2022/10/23 12:05:00;;;;;;;8.38;3.70;;;18.30;99.90;;;;;;4993337;28;20037;-78
2022/10/23 12:07:30;;;;;;;6.72;3.47;;;18.40;99.90;;;;;;5005385;28;20044;-75
2022/10/23 12:10:03;;;;;;;5.55;2.88;;;18.30;99.90;;;;;;4998994;28;20050;-77
2022/10/23 12:12:32;;;;;;;15.55;3.10;;;18.40;99.90;;;;;;4999189;28;20022;-78
2022/10/23 12:15:28;;;;;;;5.05;2.75;;;18.40;99.90;;;;;;4993005;28;20109;-77
2022/10/23 12:18:07;;;;;;;8.95;3.08;;;18.40;99.90;;;;;;4984746;28;20514;-77
2022/10/23 12:20:45;;;;;;;7.88;2.97;;;18.40;99.90;;;;;;4993171;28;20093;-83
2022/10/23 12:23:16;;;;;;;5.78;2.95;;;18.40;99.90;;;;;;4997101;28;20053;-79
2022/10/23 12:26:04;;;;;;;14.95;3.22;;;18.40;99.90;;;;;;5004509;28;20095;-80
2022/10/23 12:28:37;;;;;;;8.63;2.63;;;18.50;99.90;;;;;;5000101;28;20052;-79
2022/10/23 12:31:12;;;;;;;8.60;2.80;;;18.50;99.90;;;;;;4996155;28;20535;-79
2022/10/23 12:33:49;;;;;;;4.03;2.75;;;18.50;99.90;;;;;;4998062;28;20486;-78
2022/10/23 12:36:21;;;;;;;8.73;2.75;;;18.60;99.90;;;;;;5004644;28;20048;-79
2022/10/23 12:38:48;;;;;;;12.48;3.42;;;18.60;99.90;;;;;;4997847;28;20026;-78
2022/10/23 12:41:15;;;;;;;6.55;2.65;;;18.60;99.90;;;;;;5000489;28;20030;-78
2022/10/23 12:43:51;;;;;;;6.55;3.00;;;18.60;99.90;;;;;;4998958;28;20025;-78
2022/10/23 12:46:33;;;;;;;9.15;2.78;;;18.60;99.90;;;;;;5000227;28;20038;-78
2022/10/23 12:49:02;;;;;;;6.63;2.90;;;18.60;99.90;;;;;;4992866;28;20061;-79
2022/10/23 12:51:31;;;;;;;8.77;2.92;;;18.70;99.90;;;;;;5004390;28;20382;-75
2022/10/23 12:53:57;;;;;;;6.75;2.95;;;18.70;99.90;;;;;;5006325;28;20402;-74
2022/10/23 12:56:24;;;;;;;4.50;2.30;;;18.70;99.90;;;;;;5014785;28;20871;-75
2022/10/23 12:58:56;;;;;;;12.43;3.10;;;18.80;99.90;;;;;;5006141;28;20382;-75
2022/10/23 13:01:31;;;;;;;5.25;2.70;;;18.70;99.90;;;;;;5007293;28;20033;-74
2022/10/23 13:04:06;;;;;;;10.35;2.60;;;18.80;99.90;;;;;;5008614;28;20511;-77
2022/10/23 13:06:32;;;;;;;7.32;2.42;;;18.80;99.90;;;;;;4997283;28;20039;-73